Terminal Aerodrome Forecast
Issued by NWS Sioux Falls, SD

Home | Current Version | Previous Version | Graphics & Text | Print | Product List | Glossary Off
Versions: 1 2 3 4 5 6 7 8 9 10 11 12 13 14 15 16 17 18 19 20 21 22 23 24 25 26 27 28 29 30 31 32 33 34 35 36 37 38 39

000
FTUS43 KFSD 020528
TAFSUX
TAF
KSUX 020528Z 0206/0306 11006KT P6SM SCT120 BKN250
     FM021100 10005KT P6SM SCT025 BKN100
     FM021300 09005KT 6SM -SHRA BKN025 BKN050
     FM021800 14006KT P6SM OVC035
     FM030000 15004KT P6SM OVC100=

USA.gov is the U.S. government's official web portal to all federal, state and local government web resources and services.